sensor_id;sensor_type;location;lat;lon;timestamp;P1;durP1;ratioP1;P2;durP2;ratioP2
4732;SDS011;2380;53.668;10.008;2024-02-28T00:00:45;31.20;;;15.70;;
4732;SDS011;2380;53.668;10.008;2024-02-28T00:03:15;35.07;;;16.33;;
4732;SDS011;2380;53.668;10.008;2024-02-28T00:05:44;32.70;;;16.80;;
4732;SDS011;2380;53.668;10.008;2024-02-28T00:08:14;36.27;;;18.50;;
4732;SDS011;2380;53.668;10.008;2024-02-28T00:10:48;37.83;;;17.40;;
4732;SDS011;2380;53.668;10.008;2024-02-28T00:13:17;40.47;;;19.80;;
4732;SDS011;2380;53.668;10.008;2024-02-28T00:15:49;39.80;;;18.23;;
4732;SDS011;2380;53.668;10.008;2024-02-28T00:18:18;37.70;;;18.13;;
4732;SDS011;2380;53.668;10.008;2024-02-28T00:20:48;45.23;;;19.03;;
4732;SDS011;2380;53.668;10.008;2024-02-28T00:23:17;41.60;;;19.07;;
4732;SDS011;2380;53.668;10.008;2024-02-28T00:25:49;38.47;;;18.07;;
4732;SDS011;2380;53.668;10.008;2024-02-28T00:28:19;41.43;;;17.87;;
4732;SDS011;2380;53.668;10.008;2024-02-28T00:30:48;40.57;;;18.23;;
4732;SDS011;2380;53.668;10.008;2024-02-28T00:33:18;38.27;;;17.77;;
4732;SDS011;2380;53.668;10.008;2024-02-28T00:35:47;40.30;;;17.07;;
4732;SDS011;2380;53.668;10.008;2024-02-28T00:38:17;39.57;;;19.00;;
4732;SDS011;2380;53.668;10.008;2024-02-28T00:40:46;43.93;;;19.60;;
4732;SDS011;2380;53.668;10.008;2024-02-28T00:43:18;43.63;;;19.93;;
4732;SDS011;2380;53.668;10.008;2024-02-28T00:45:47;45.33;;;19.80;;
4732;SDS011;2380;53.668;10.008;2024-02-28T00:48:17;45.17;;;19.80;;
4732;SDS011;2380;53.668;10.008;2024-02-28T00:50:46;55.00;;;20.83;;
4732;SDS011;2380;53.668;10.008;2024-02-28T00:53:16;47.27;;;19.50;;
4732;SDS011;2380;53.668;10.008;2024-02-28T00:55:46;54.33;;;22.90;;
4732;SDS011;2380;53.668;10.008;2024-02-28T00:58:18;52.70;;;21.83;;
4732;SDS011;2380;53.668;10.008;2024-02-28T01:00:47;54.50;;;21.53;;
4732;SDS011;2380;53.668;10.008;2024-02-28T01:03:17;48.53;;;19.50;;
4732;SDS011;2380;53.668;10.008;2024-02-28T01:05:48;53.67;;;21.93;;
4732;SDS011;2380;53.668;10.008;2024-02-28T01:08:18;52.27;;;20.63;;
4732;SDS011;2380;53.668;10.008;2024-02-28T01:10:47;47.90;;;20.50;;
4732;SDS011;2380;53.668;10.008;2024-02-28T01:13:19;42.37;;;17.50;;
4732;SDS011;2380;53.668;10.008;2024-02-28T01:15:49;43.97;;;17.70;;
4732;SDS011;2380;53.668;10.008;2024-02-28T01:18:19;42.20;;;16.60;;
4732;SDS011;2380;53.668;10.008;2024-02-28T01:20:48;41.43;;;17.20;;
4732;SDS011;2380;53.668;10.008;2024-02-28T01:23:20;45.43;;;19.03;;
4732;SDS011;2380;53.668;10.008;2024-02-28T01:25:49;44.17;;;17.17;;
4732;SDS011;2380;53.668;10.008;2024-02-28T01:28:21;33.67;;;12.33;;
4732;SDS011;2380;53.668;10.008;2024-02-28T01:30:50;38.73;;;16.17;;
4732;SDS011;2380;53.668;10.008;2024-02-28T01:33:20;42.90;;;17.90;;
4732;SDS011;2380;53.668;10.008;2024-02-28T01:35:49;35.60;;;14.83;;
4732;SDS011;2380;53.668;10.008;2024-02-28T01:38:22;46.27;;;19.40;;
4732;SDS011;2380;53.668;10.008;2024-02-28T01:40:53;43.13;;;17.50;;
4732;SDS011;2380;53.668;10.008;2024-02-28T01:43:25;42.80;;;16.87;;
4732;SDS011;2380;53.668;10.008;2024-02-28T01:45:54;38.73;;;15.83;;
4732;SDS011;2380;53.668;10.008;2024-02-28T01:48:24;43.70;;;17.00;;
4732;SDS011;2380;53.668;10.008;2024-02-28T01:50:53;47.77;;;18.10;;
4732;SDS011;2380;53.668;10.008;2024-02-28T01:53:22;45.13;;;18.57;;
4732;SDS011;2380;53.668;10.008;2024-02-28T01:55:52;44.83;;;18.07;;
4732;SDS011;2380;53.668;10.008;2024-02-28T01:58:26;42.60;;;18.30;;
4732;SDS011;2380;53.668;10.008;2024-02-28T02:00:55;48.83;;;15.47;;
4732;SDS011;2380;53.668;10.008;2024-02-28T02:03:25;41.23;;;17.40;;
4732;SDS011;2380;53.668;10.008;2024-02-28T02:05:54;44.30;;;17.40;;
4732;SDS011;2380;53.668;10.008;2024-02-28T02:08:24;42.30;;;16.40;;
4732;SDS011;2380;53.668;10.008;2024-02-28T02:10:53;21.53;;;8.83;;
4732;SDS011;2380;53.668;10.008;2024-02-28T02:13:25;42.20;;;16.87;;
4732;SDS011;2380;53.668;10.008;2024-02-28T02:15:55;42.60;;;16.20;;
4732;SDS011;2380;53.668;10.008;2024-02-28T02:18:24;34.40;;;13.03;;
4732;SDS011;2380;53.668;10.008;2024-02-28T02:20:54;38.43;;;16.67;;
4732;SDS011;2380;53.668;10.008;2024-02-28T02:23:29;38.37;;;16.70;;
4732;SDS011;2380;53.668;10.008;2024-02-28T02:25:58;37.60;;;16.50;;
4732;SDS011;2380;53.668;10.008;2024-02-28T02:28:28;37.70;;;15.87;;
4732;SDS011;2380;53.668;10.008;2024-02-28T02:30:57;41.33;;;17.00;;
4732;SDS011;2380;53.668;10.008;2024-02-28T02:33:26;39.50;;;16.20;;
4732;SDS011;2380;53.668;10.008;2024-02-28T02:35:56;45.83;;;18.67;;
4732;SDS011;2380;53.668;10.008;2024-02-28T02:38:25;39.40;;;15.13;;
4732;SDS011;2380;53.668;10.008;2024-02-28T02:40:57;34.77;;;14.30;;
4732;SDS011;2380;53.668;10.008;2024-02-28T02:43:27;37.17;;;14.77;;
4732;SDS011;2380;53.668;10.008;2024-02-28T02:45:56;24.40;;;9.60;;
4732;SDS011;2380;53.668;10.008;2024-02-28T02:48:25;35.50;;;15.33;;
4732;SDS011;2380;53.668;10.008;2024-02-28T02:50:55;33.43;;;12.43;;
4732;SDS011;2380;53.668;10.008;2024-02-28T02:53:24;41.83;;;16.83;;
4732;SDS011;2380;53.668;10.008;2024-02-28T02:55:54;44.87;;;17.33;;
4732;SDS011;2380;53.668;10.008;2024-02-28T02:58:26;38.83;;;15.47;;
4732;SDS011;2380;53.668;10.008;2024-02-28T03:00:55;40.67;;;15.87;;
4732;SDS011;2380;53.668;10.008;2024-02-28T03:03:24;40.63;;;16.70;;
4732;SDS011;2380;53.668;10.008;2024-02-28T03:05:54;38.00;;;14.30;;
4732;SDS011;2380;53.668;10.008;2024-02-28T03:08:23;36.40;;;14.97;;
4732;SDS011;2380;53.668;10.008;2024-02-28T03:10:53;39.63;;;15.57;;
4732;SDS011;2380;53.668;10.008;2024-02-28T03:13:22;50.63;;;17.90;;
4732;SDS011;2380;53.668;10.008;2024-02-28T03:15:54;36.93;;;15.60;;
4732;SDS011;2380;53.668;10.008;2024-02-28T03:18:24;39.47;;;13.30;;
4732;SDS011;2380;53.668;10.008;2024-02-28T03:20:53;35.90;;;12.93;;
4732;SDS011;2380;53.668;10.008;2024-02-28T03:23:23;34.47;;;12.80;;
4732;SDS011;2380;53.668;10.008;2024-02-28T03:25:52;33.33;;;13.03;;
4732;SDS011;2380;53.668;10.008;2024-02-28T03:28:21;41.50;;;14.60;;
4732;SDS011;2380;53.668;10.008;2024-02-28T03:30:51;37.27;;;15.50;;
4732;SDS011;2380;53.668;10.008;2024-02-28T03:33:23;34.77;;;13.90;;
4732;SDS011;2380;53.668;10.008;2024-02-28T03:35:52;34.83;;;14.13;;
4732;SDS011;2380;53.668;10.008;2024-02-28T03:38:22;39.20;;;14.83;;
4732;SDS011;2380;53.668;10.008;2024-02-28T03:40:51;35.27;;;14.37;;
4732;SDS011;2380;53.668;10.008;2024-02-28T03:43:20;36.50;;;15.50;;
4732;SDS011;2380;53.668;10.008;2024-02-28T03:45:50;47.80;;;17.40;;
4732;SDS011;2380;53.668;10.008;2024-02-28T03:48:19;44.63;;;17.33;;
4732;SDS011;2380;53.668;10.008;2024-02-28T03:50:51;39.30;;;16.30;;
4732;SDS011;2380;53.668;10.008;2024-02-28T03:53:20;31.70;;;14.77;;
4732;SDS011;2380;53.668;10.008;2024-02-28T03:55:50;46.30;;;16.27;;
4732;SDS011;2380;53.668;10.008;2024-02-28T03:58:19;37.10;;;15.00;;
4732;SDS011;2380;53.668;10.008;2024-02-28T04:00:48;40.27;;;14.73;;
4732;SDS011;2380;53.668;10.008;2024-02-28T04:03:18;45.47;;;17.03;;
4732;SDS011;2380;53.668;10.008;2024-02-28T04:05:47;37.50;;;14.90;;
4732;SDS011;2380;53.668;10.008;2024-02-28T04:08:19;37.70;;;14.87;;
4732;SDS011;2380;53.668;10.008;2024-02-28T04:10:49;36.70;;;14.63;;
4732;SDS011;2380;53.668;10.008;2024-02-28T04:13:18;42.83;;;15.70;;
4732;SDS011;2380;53.668;10.008;2024-02-28T04:15:47;43.43;;;17.67;;
4732;SDS011;2380;53.668;10.008;2024-02-28T04:18:17;37.63;;;15.13;;
4732;SDS011;2380;53.668;10.008;2024-02-28T04:20:46;39.53;;;15.87;;
4732;SDS011;2380;53.668;10.008;2024-02-28T04:23:18;37.40;;;14.67;;
4732;SDS011;2380;53.668;10.008;2024-02-28T04:25:48;40.60;;;15.87;;
4732;SDS011;2380;53.668;10.008;2024-02-28T04:28:17;37.63;;;16.30;;
4732;SDS011;2380;53.668;10.008;2024-02-28T04:30:46;37.90;;;15.73;;
4732;SDS011;2380;53.668;10.008;2024-02-28T04:33:16;38.13;;;13.87;;
4732;SDS011;2380;53.668;10.008;2024-02-28T04:35:45;39.73;;;15.50;;
4732;SDS011;2380;53.668;10.008;2024-02-28T04:38:15;42.13;;;15.10;;
4732;SDS011;2380;53.668;10.008;2024-02-28T04:40:47;34.93;;;14.20;;
4732;SDS011;2380;53.668;10.008;2024-02-28T04:43:16;37.63;;;13.07;;
4732;SDS011;2380;53.668;10.008;2024-02-28T04:45:45;36.93;;;15.33;;
4732;SDS011;2380;53.668;10.008;2024-02-28T04:48:15;34.30;;;14.70;;
4732;SDS011;2380;53.668;10.008;2024-02-28T04:50:44;34.27;;;14.30;;
4732;SDS011;2380;53.668;10.008;2024-02-28T04:53:14;29.43;;;13.63;;
4732;SDS011;2380;53.668;10.008;2024-02-28T04:55:43;37.10;;;14.07;;
4732;SDS011;2380;53.668;10.008;2024-02-28T04:58:15;39.13;;;13.97;;
4732;SDS011;2380;53.668;10.008;2024-02-28T05:00:44;40.27;;;15.37;;
4732;SDS011;2380;53.668;10.008;2024-02-28T05:03:14;33.97;;;14.00;;
4732;SDS011;2380;53.668;10.008;2024-02-28T05:05:43;40.07;;;14.27;;
4732;SDS011;2380;53.668;10.008;2024-02-28T05:08:13;38.80;;;15.87;;
4732;SDS011;2380;53.668;10.008;2024-02-28T05:10:42;36.07;;;14.73;;
4732;SDS011;2380;53.668;10.008;2024-02-28T05:13:11;34.27;;;13.10;;
4732;SDS011;2380;53.668;10.008;2024-02-28T05:15:44;38.80;;;14.93;;
4732;SDS011;2380;53.668;10.008;2024-02-28T05:18:13;34.70;;;13.53;;
4732;SDS011;2380;53.668;10.008;2024-02-28T05:20:43;37.90;;;15.37;;
4732;SDS011;2380;53.668;10.008;2024-02-28T05:23:12;38.90;;;14.93;;
4732;SDS011;2380;53.668;10.008;2024-02-28T05:25:41;38.27;;;15.37;;
4732;SDS011;2380;53.668;10.008;2024-02-28T05:28:11;36.43;;;14.33;;
4732;SDS011;2380;53.668;10.008;2024-02-28T05:30:40;34.67;;;14.07;;
4732;SDS011;2380;53.668;10.008;2024-02-28T05:33:17;34.47;;;14.83;;
4732;SDS011;2380;53.668;10.008;2024-02-28T05:35:47;39.90;;;16.67;;
4732;SDS011;2380;53.668;10.008;2024-02-28T05:38:16;41.27;;;16.27;;
4732;SDS011;2380;53.668;10.008;2024-02-28T05:40:46;40.33;;;15.13;;
4732;SDS011;2380;53.668;10.008;2024-02-28T05:43:15;37.03;;;15.30;;
4732;SDS011;2380;53.668;10.008;2024-02-28T05:45:44;39.67;;;15.60;;
4732;SDS011;2380;53.668;10.008;2024-02-28T05:48:16;41.90;;;16.97;;
4732;SDS011;2380;53.668;10.008;2024-02-28T05:50:46;36.27;;;14.57;;
4732;SDS011;2380;53.668;10.008;2024-02-28T05:53:15;42.40;;;16.90;;
4732;SDS011;2380;53.668;10.008;2024-02-28T05:55:44;41.93;;;16.10;;
4732;SDS011;2380;53.668;10.008;2024-02-28T05:58:14;34.30;;;14.90;;
4732;SDS011;2380;53.668;10.008;2024-02-28T06:00:43;37.27;;;16.03;;
4732;SDS011;2380;53.668;10.008;2024-02-28T06:03:16;42.47;;;15.83;;
4732;SDS011;2380;53.668;10.008;2024-02-28T06:05:46;41.50;;;16.60;;
4732;SDS011;2380;53.668;10.008;2024-02-28T06:08:16;41.47;;;16.20;;
4732;SDS011;2380;53.668;10.008;2024-02-28T06:10:45;37.40;;;15.57;;
4732;SDS011;2380;53.668;10.008;2024-02-28T06:13:15;42.83;;;16.70;;
4732;SDS011;2380;53.668;10.008;2024-02-28T06:15:44;43.93;;;17.57;;
4732;SDS011;2380;53.668;10.008;2024-02-28T06:18:16;40.70;;;15.20;;
4732;SDS011;2380;53.668;10.008;2024-02-28T06:20:46;40.03;;;15.60;;
4732;SDS011;2380;53.668;10.008;2024-02-28T06:23:16;41.50;;;16.50;;
4732;SDS011;2380;53.668;10.008;2024-02-28T06:25:54;43.40;;;15.83;;
4732;SDS011;2380;53.668;10.008;2024-02-28T06:28:24;44.37;;;16.63;;
4732;SDS011;2380;53.668;10.008;2024-02-28T06:30:53;49.13;;;18.70;;
4732;SDS011;2380;53.668;10.008;2024-02-28T06:33:25;44.50;;;18.27;;
4732;SDS011;2380;53.668;10.008;2024-02-28T06:35:54;40.90;;;17.23;;
4732;SDS011;2380;53.668;10.008;2024-02-28T06:38:24;44.13;;;17.37;;
4732;SDS011;2380;53.668;10.008;2024-02-28T06:40:53;47.03;;;17.53;;
4732;SDS011;2380;53.668;10.008;2024-02-28T06:43:23;40.70;;;16.80;;
4732;SDS011;2380;53.668;10.008;2024-02-28T06:45:49;43.03;;;18.57;;
4732;SDS011;2380;53.668;10.008;2024-02-28T06:48:19;50.53;;;18.33;;
4732;SDS011;2380;53.668;10.008;2024-02-28T06:50:51;41.60;;;17.60;;
4732;SDS011;2380;53.668;10.008;2024-02-28T06:53:20;49.20;;;18.13;;
4732;SDS011;2380;53.668;10.008;2024-02-28T06:55:50;41.50;;;18.00;;
4732;SDS011;2380;53.668;10.008;2024-02-28T06:58:19;43.13;;;16.43;;
4732;SDS011;2380;53.668;10.008;2024-02-28T07:00:50;37.57;;;15.80;;
4732;SDS011;2380;53.668;10.008;2024-02-28T07:03:23;44.70;;;17.30;;
4732;SDS011;2380;53.668;10.008;2024-02-28T07:05:55;35.80;;;15.93;;
4732;SDS011;2380;53.668;10.008;2024-02-28T07:08:24;37.50;;;16.50;;
4732;SDS011;2380;53.668;10.008;2024-02-28T07:10:54;38.90;;;16.50;;
4732;SDS011;2380;53.668;10.008;2024-02-28T07:13:24;36.40;;;15.50;;
4732;SDS011;2380;53.668;10.008;2024-02-28T07:15:53;34.83;;;15.13;;
4732;SDS011;2380;53.668;10.008;2024-02-28T07:18:24;32.07;;;14.53;;
4732;SDS011;2380;53.668;10.008;2024-02-28T07:20:58;35.17;;;14.90;;
4732;SDS011;2380;53.668;10.008;2024-02-28T07:23:28;38.60;;;14.30;;
4732;SDS011;2380;53.668;10.008;2024-02-28T07:25:57;33.00;;;14.73;;
4732;SDS011;2380;53.668;10.008;2024-02-28T07:28:37;36.57;;;15.00;;
4732;SDS011;2380;53.668;10.008;2024-02-28T07:31:07;30.70;;;14.60;;
4732;SDS011;2380;53.668;10.008;2024-02-28T07:33:43;41.50;;;13.90;;
4732;SDS011;2380;53.668;10.008;2024-02-28T07:36:15;32.03;;;13.07;;
4732;SDS011;2380;53.668;10.008;2024-02-28T07:38:44;32.07;;;13.77;;
4732;SDS011;2380;53.668;10.008;2024-02-28T07:41:14;26.00;;;12.60;;
4732;SDS011;2380;53.668;10.008;2024-02-28T07:43:43;33.73;;;13.50;;
4732;SDS011;2380;53.668;10.008;2024-02-28T07:46:13;27.10;;;13.00;;
4732;SDS011;2380;53.668;10.008;2024-02-28T07:48:42;31.43;;;13.47;;
4732;SDS011;2380;53.668;10.008;2024-02-28T07:51:11;32.70;;;14.77;;
4732;SDS011;2380;53.668;10.008;2024-02-28T07:53:44;29.80;;;10.47;;
4732;SDS011;2380;53.668;10.008;2024-02-28T07:56:16;30.37;;;14.17;;
4732;SDS011;2380;53.668;10.008;2024-02-28T07:58:46;61.93;;;22.97;;
4732;SDS011;2380;53.668;10.008;2024-02-28T08:01:15;30.43;;;12.60;;
4732;SDS011;2380;53.668;10.008;2024-02-28T08:03:45;29.67;;;13.07;;
4732;SDS011;2380;53.668;10.008;2024-02-28T08:06:15;30.83;;;12.77;;
4732;SDS011;2380;53.668;10.008;2024-02-28T08:08:47;31.97;;;13.47;;
4732;SDS011;2380;53.668;10.008;2024-02-28T08:11:17;53.13;;;15.83;;
4732;SDS011;2380;53.668;10.008;2024-02-28T08:13:46;23.57;;;11.00;;
4732;SDS011;2380;53.668;10.008;2024-02-28T08:16:16;32.93;;;13.47;;
4732;SDS011;2380;53.668;10.008;2024-02-28T08:18:45;30.20;;;13.47;;
4732;SDS011;2380;53.668;10.008;2024-02-28T08:21:14;35.20;;;14.97;;
4732;SDS011;2380;53.668;10.008;2024-02-28T08:23:44;31.17;;;13.20;;
4732;SDS011;2380;53.668;10.008;2024-02-28T08:26:16;31.90;;;14.90;;
4732;SDS011;2380;53.668;10.008;2024-02-28T08:28:46;40.13;;;15.90;;
4732;SDS011;2380;53.668;10.008;2024-02-28T08:31:15;26.17;;;9.87;;
4732;SDS011;2380;53.668;10.008;2024-02-28T08:33:44;36.73;;;15.10;;
4732;SDS011;2380;53.668;10.008;2024-02-28T08:36:15;35.80;;;16.10;;
4732;SDS011;2380;53.668;10.008;2024-02-28T08:38:44;37.40;;;17.10;;
4732;SDS011;2380;53.668;10.008;2024-02-28T08:41:16;44.73;;;15.13;;
4732;SDS011;2380;53.668;10.008;2024-02-28T08:43:45;36.07;;;13.17;;
4732;SDS011;2380;53.668;10.008;2024-02-28T08:46:15;41.50;;;15.63;;
4732;SDS011;2380;53.668;10.008;2024-02-28T08:48:45;37.90;;;16.37;;
4732;SDS011;2380;53.668;10.008;2024-02-28T08:51:14;47.27;;;16.90;;
4732;SDS011;2380;53.668;10.008;2024-02-28T08:53:43;50.13;;;19.20;;
4732;SDS011;2380;53.668;10.008;2024-02-28T08:56:15;42.67;;;17.67;;
4732;SDS011;2380;53.668;10.008;2024-02-28T08:58:45;43.80;;;16.93;;
4732;SDS011;2380;53.668;10.008;2024-02-28T09:01:14;41.10;;;16.33;;
4732;SDS011;2380;53.668;10.008;2024-02-28T09:03:44;43.50;;;16.67;;
4732;SDS011;2380;53.668;10.008;2024-02-28T09:06:14;44.00;;;20.20;;
4732;SDS011;2380;53.668;10.008;2024-02-28T09:08:43;39.00;;;15.80;;
4732;SDS011;2380;53.668;10.008;2024-02-28T09:11:13;45.17;;;15.50;;
4732;SDS011;2380;53.668;10.008;2024-02-28T09:13:45;40.37;;;15.40;;
4732;SDS011;2380;53.668;10.008;2024-02-28T09:16:14;38.80;;;15.67;;
4732;SDS011;2380;53.668;10.008;2024-02-28T09:18:43;36.30;;;15.43;;
4732;SDS011;2380;53.668;10.008;2024-02-28T09:21:13;31.30;;;13.17;;
4732;SDS011;2380;53.668;10.008;2024-02-28T09:23:42;37.93;;;14.53;;
4732;SDS011;2380;53.668;10.008;2024-02-28T09:26:12;36.93;;;16.90;;
4732;SDS011;2380;53.668;10.008;2024-02-28T09:28:41;35.70;;;13.53;;
4732;SDS011;2380;53.668;10.008;2024-02-28T09:31:14;29.53;;;13.10;;
4732;SDS011;2380;53.668;10.008;2024-02-28T09:33:43;40.17;;;15.80;;
4732;SDS011;2380;53.668;10.008;2024-02-28T09:36:15;43.30;;;14.40;;
4732;SDS011;2380;53.668;10.008;2024-02-28T09:38:45;35.87;;;15.77;;
4732;SDS011;2380;53.668;10.008;2024-02-28T09:41:14;35.53;;;15.97;;
4732;SDS011;2380;53.668;10.008;2024-02-28T09:43:44;37.40;;;15.93;;
4732;SDS011;2380;53.668;10.008;2024-02-28T09:46:16;33.10;;;15.33;;
4732;SDS011;2380;53.668;10.008;2024-02-28T09:48:45;34.10;;;14.50;;
4732;SDS011;2380;53.668;10.008;2024-02-28T09:51:17;32.47;;;15.07;;
4732;SDS011;2380;53.668;10.008;2024-02-28T09:53:47;35.80;;;15.30;;
4732;SDS011;2380;53.668;10.008;2024-02-28T09:56:17;32.77;;;13.83;;
4732;SDS011;2380;53.668;10.008;2024-02-28T09:58:46;36.37;;;14.60;;
4732;SDS011;2380;53.668;10.008;2024-02-28T10:01:18;39.00;;;16.43;;
4732;SDS011;2380;53.668;10.008;2024-02-28T10:03:49;20.47;;;8.40;;
4732;SDS011;2380;53.668;10.008;2024-02-28T10:06:20;27.07;;;11.97;;
4732;SDS011;2380;53.668;10.008;2024-02-28T10:08:50;30.20;;;12.77;;
4732;SDS011;2380;53.668;10.008;2024-02-28T10:11:20;29.03;;;11.23;;
4732;SDS011;2380;53.668;10.008;2024-02-28T10:13:50;23.17;;;8.20;;
4732;SDS011;2380;53.668;10.008;2024-02-28T10:16:25;31.30;;;13.70;;
4732;SDS011;2380;53.668;10.008;2024-02-28T10:18:55;29.57;;;14.30;;
4732;SDS011;2380;53.668;10.008;2024-02-28T10:21:24;25.40;;;11.60;;
4732;SDS011;2380;53.668;10.008;2024-02-28T10:23:53;32.87;;;14.50;;
4732;SDS011;2380;53.668;10.008;2024-02-28T10:26:23;34.07;;;13.10;;
4732;SDS011;2380;53.668;10.008;2024-02-28T10:28:55;32.03;;;10.00;;
4732;SDS011;2380;53.668;10.008;2024-02-28T10:31:27;25.57;;;11.83;;
4732;SDS011;2380;53.668;10.008;2024-02-28T10:33:57;26.70;;;12.60;;
4732;SDS011;2380;53.668;10.008;2024-02-28T10:36:26;27.63;;;11.87;;
4732;SDS011;2380;53.668;10.008;2024-02-28T10:39:00;27.73;;;11.53;;
4732;SDS011;2380;53.668;10.008;2024-02-28T10:41:29;27.93;;;13.27;;
4732;SDS011;2380;53.668;10.008;2024-02-28T10:44:00;25.67;;;11.67;;
4732;SDS011;2380;53.668;10.008;2024-02-28T10:46:32;32.00;;;11.90;;
4732;SDS011;2380;53.668;10.008;2024-02-28T10:49:02;24.10;;;10.83;;
4732;SDS011;2380;53.668;10.008;2024-02-28T10:51:33;26.63;;;11.43;;
4732;SDS011;2380;53.668;10.008;2024-02-28T10:54:07;28.27;;;13.50;;
4732;SDS011;2380;53.668;10.008;2024-02-28T10:56:40;33.83;;;12.50;;
4732;SDS011;2380;53.668;10.008;2024-02-28T10:59:10;27.97;;;12.40;;
4732;SDS011;2380;53.668;10.008;2024-02-28T11:01:43;28.67;;;12.30;;
4732;SDS011;2380;53.668;10.008;2024-02-28T11:04:13;31.03;;;12.03;;
4732;SDS011;2380;53.668;10.008;2024-02-28T11:06:48;36.60;;;13.80;;
4732;SDS011;2380;53.668;10.008;2024-02-28T11:09:19;30.00;;;13.20;;
4732;SDS011;2380;53.668;10.008;2024-02-28T11:11:49;26.63;;;12.37;;
4732;SDS011;2380;53.668;10.008;2024-02-28T11:14:19;25.20;;;11.33;;
4732;SDS011;2380;53.668;10.008;2024-02-28T11:17:03;23.20;;;9.90;;
4732;SDS011;2380;53.668;10.008;2024-02-28T11:19:33;17.10;;;7.40;;
4732;SDS011;2380;53.668;10.008;2024-02-28T11:22:04;24.73;;;8.50;;
4732;SDS011;2380;53.668;10.008;2024-02-28T11:24:34;25.80;;;9.00;;
4732;SDS011;2380;53.668;10.008;2024-02-28T11:27:04;27.20;;;9.93;;
4732;SDS011;2380;53.668;10.008;2024-02-28T11:29:34;17.23;;;7.27;;
4732;SDS011;2380;53.668;10.008;2024-02-28T11:32:07;30.53;;;10.40;;
4732;SDS011;2380;53.668;10.008;2024-02-28T11:34:37;27.23;;;11.73;;
4732;SDS011;2380;53.668;10.008;2024-02-28T11:37:07;26.60;;;12.03;;
4732;SDS011;2380;53.668;10.008;2024-02-28T11:39:37;23.77;;;10.37;;
4732;SDS011;2380;53.668;10.008;2024-02-28T11:42:10;31.53;;;12.30;;
4732;SDS011;2380;53.668;10.008;2024-02-28T11:44:39;19.17;;;6.43;;
4732;SDS011;2380;53.668;10.008;2024-02-28T11:47:12;27.07;;;11.07;;
4732;SDS011;2380;53.668;10.008;2024-02-28T11:49:41;32.00;;;13.30;;
4732;SDS011;2380;53.668;10.008;2024-02-28T11:52:11;28.40;;;13.50;;
4732;SDS011;2380;53.668;10.008;2024-02-28T11:54:40;19.87;;;8.80;;
4732;SDS011;2380;53.668;10.008;2024-02-28T11:57:10;19.27;;;8.93;;
4732;SDS011;2380;53.668;10.008;2024-02-28T11:59:40;20.87;;;9.23;;
4732;SDS011;2380;53.668;10.008;2024-02-28T12:02:15;23.27;;;10.00;;
4732;SDS011;2380;53.668;10.008;2024-02-28T12:04:44;23.57;;;11.90;;
4732;SDS011;2380;53.668;10.008;2024-02-28T12:07:16;28.23;;;10.97;;
4732;SDS011;2380;53.668;10.008;2024-02-28T12:09:46;29.03;;;11.63;;
4732;SDS011;2380;53.668;10.008;2024-02-28T12:12:15;24.67;;;11.00;;
4732;SDS011;2380;53.668;10.008;2024-02-28T12:14:45;26.20;;;12.37;;
4732;SDS011;2380;53.668;10.008;2024-02-28T12:17:18;18.57;;;8.87;;
4732;SDS011;2380;53.668;10.008;2024-02-28T12:19:47;21.40;;;9.97;;
4732;SDS011;2380;53.668;10.008;2024-02-28T12:22:21;29.33;;;12.40;;
4732;SDS011;2380;53.668;10.008;2024-02-28T12:24:50;27.70;;;13.30;;
4732;SDS011;2380;53.668;10.008;2024-02-28T12:27:20;22.57;;;8.70;;
4732;SDS011;2380;53.668;10.008;2024-02-28T12:29:49;21.30;;;7.20;;
4732;SDS011;2380;53.668;10.008;2024-02-28T12:32:21;26.80;;;10.93;;
4732;SDS011;2380;53.668;10.008;2024-02-28T12:34:51;25.83;;;12.57;;
4732;SDS011;2380;53.668;10.008;2024-02-28T12:37:20;29.57;;;12.43;;
4732;SDS011;2380;53.668;10.008;2024-02-28T12:39:49;27.17;;;12.30;;
4732;SDS011;2380;53.668;10.008;2024-02-28T12:42:20;28.37;;;11.03;;
4732;SDS011;2380;53.668;10.008;2024-02-28T12:44:49;29.93;;;10.40;;
4732;SDS011;2380;53.668;10.008;2024-02-28T12:47:21;24.00;;;10.60;;
4732;SDS011;2380;53.668;10.008;2024-02-28T12:49:51;30.43;;;9.53;;
4732;SDS011;2380;53.668;10.008;2024-02-28T12:52:21;35.00;;;14.40;;
4732;SDS011;2380;53.668;10.008;2024-02-28T12:54:51;27.33;;;12.10;;
4732;SDS011;2380;53.668;10.008;2024-02-28T12:57:20;33.23;;;12.53;;
4732;SDS011;2380;53.668;10.008;2024-02-28T12:59:49;28.70;;;11.10;;
4732;SDS011;2380;53.668;10.008;2024-02-28T13:02:21;41.63;;;14.10;;
4732;SDS011;2380;53.668;10.008;2024-02-28T13:06:54;29.77;;;11.93;;
4732;SDS011;2380;53.668;10.008;2024-02-28T13:09:23;36.50;;;14.60;;
4732;SDS011;2380;53.668;10.008;2024-02-28T13:11:53;29.93;;;13.87;;
4732;SDS011;2380;53.668;10.008;2024-02-28T13:14:22;31.83;;;13.50;;
4732;SDS011;2380;53.668;10.008;2024-02-28T13:16:51;28.53;;;11.83;;
4732;SDS011;2380;53.668;10.008;2024-02-28T13:19:21;30.47;;;11.67;;
4732;SDS011;2380;53.668;10.008;2024-02-28T13:21:50;36.83;;;13.47;;
4732;SDS011;2380;53.668;10.008;2024-02-28T13:24:22;28.17;;;11.73;;
4732;SDS011;2380;53.668;10.008;2024-02-28T13:26:52;35.50;;;12.50;;
4732;SDS011;2380;53.668;10.008;2024-02-28T13:29:21;28.23;;;11.10;;
4732;SDS011;2380;53.668;10.008;2024-02-28T13:31:50;26.30;;;10.43;;
4732;SDS011;2380;53.668;10.008;2024-02-28T13:34:20;24.50;;;9.87;;
4732;SDS011;2380;53.668;10.008;2024-02-28T13:36:49;26.67;;;10.10;;
4732;SDS011;2380;53.668;10.008;2024-02-28T13:39:19;29.57;;;12.60;;
4732;SDS011;2380;53.668;10.008;2024-02-28T13:41:52;26.90;;;12.47;;
4732;SDS011;2380;53.668;10.008;2024-02-28T13:44:21;31.03;;;11.83;;
4732;SDS011;2380;53.668;10.008;2024-02-28T13:46:51;23.90;;;11.23;;
4732;SDS011;2380;53.668;10.008;2024-02-28T13:49:21;24.57;;;12.57;;
4732;SDS011;2380;53.668;10.008;2024-02-28T13:51:50;25.30;;;12.03;;
4732;SDS011;2380;53.668;10.008;2024-02-28T13:54:20;28.10;;;9.30;;
4732;SDS011;2380;53.668;10.008;2024-02-28T13:56:52;28.70;;;12.10;;
4732;SDS011;2380;53.668;10.008;2024-02-28T13:59:21;25.33;;;10.47;;
4732;SDS011;2380;53.668;10.008;2024-02-28T14:01:51;20.27;;;7.27;;
4732;SDS011;2380;53.668;10.008;2024-02-28T14:04:20;28.40;;;10.33;;
4732;SDS011;2380;53.668;10.008;2024-02-28T14:06:49;25.67;;;10.70;;
4732;SDS011;2380;53.668;10.008;2024-02-28T14:09:19;25.60;;;10.50;;
4732;SDS011;2380;53.668;10.008;2024-02-28T14:11:48;33.30;;;12.60;;
4732;SDS011;2380;53.668;10.008;2024-02-28T14:14:20;35.10;;;11.97;;
4732;SDS011;2380;53.668;10.008;2024-02-28T14:16:50;33.30;;;11.47;;
4732;SDS011;2380;53.668;10.008;2024-02-28T14:19:19;29.40;;;12.50;;
4732;SDS011;2380;53.668;10.008;2024-02-28T14:21:48;33.27;;;11.70;;
4732;SDS011;2380;53.668;10.008;2024-02-28T14:24:18;31.10;;;12.47;;
4732;SDS011;2380;53.668;10.008;2024-02-28T14:26:47;29.23;;;11.90;;
4732;SDS011;2380;53.668;10.008;2024-02-28T14:29:17;24.13;;;10.27;;
4732;SDS011;2380;53.668;10.008;2024-02-28T14:31:49;31.40;;;12.77;;
4732;SDS011;2380;53.668;10.008;2024-02-28T14:34:18;26.03;;;11.83;;
4732;SDS011;2380;53.668;10.008;2024-02-28T14:36:48;33.27;;;12.67;;
4732;SDS011;2380;53.668;10.008;2024-02-28T14:39:17;28.90;;;12.10;;
4732;SDS011;2380;53.668;10.008;2024-02-28T14:41:46;27.63;;;10.63;;
4732;SDS011;2380;53.668;10.008;2024-02-28T14:44:16;22.90;;;9.63;;
4732;SDS011;2380;53.668;10.008;2024-02-28T14:46:45;30.00;;;11.83;;
4732;SDS011;2380;53.668;10.008;2024-02-28T14:49:17;30.27;;;11.50;;
4732;SDS011;2380;53.668;10.008;2024-02-28T14:51:47;25.17;;;11.63;;
4732;SDS011;2380;53.668;10.008;2024-02-28T14:54:17;26.17;;;9.57;;